createdAt,value
2019-05-13T00:00:55.048Z,0.00
2019-05-13T00:01:55.020Z,0.00
2019-05-13T00:02:55.017Z,0.00
2019-05-13T00:03:54.994Z,0.00
2019-05-13T00:04:54.978Z,0.00
2019-05-13T00:05:55.001Z,0.00
2019-05-13T00:06:57.634Z,0.00
2019-05-13T00:07:54.957Z,0.00
2019-05-13T00:08:54.935Z,0.00
2019-05-13T00:09:54.925Z,0.00
2019-05-13T00:10:54.938Z,0.00
2019-05-13T00:11:54.910Z,0.00
2019-05-13T00:12:54.899Z,0.00
2019-05-13T00:13:54.881Z,0.00
2019-05-13T00:14:54.869Z,0.00
2019-05-13T00:15:54.888Z,0.00
2019-05-13T00:16:54.868Z,0.00
2019-05-13T00:17:54.838Z,0.00
2019-05-13T00:18:54.832Z,0.00
2019-05-13T00:19:54.834Z,0.00
2019-05-13T00:20:54.842Z,0.00
2019-05-13T00:21:54.821Z,0.00
2019-05-13T00:22:54.785Z,0.00
2019-05-13T00:23:54.769Z,0.00
2019-05-13T00:24:54.758Z,0.00
2019-05-13T00:25:54.747Z,0.00
2019-05-13T00:26:54.775Z,0.00
2019-05-13T00:27:54.724Z,0.00
2019-05-13T00:28:54.718Z,0.00
2019-05-13T00:29:54.719Z,0.00
2019-05-13T00:30:54.690Z,0.00
2019-05-13T00:31:54.709Z,0.00
2019-05-13T00:32:54.708Z,0.00
2019-05-13T00:33:54.666Z,0.00
2019-05-13T00:34:54.651Z,0.00
2019-05-13T00:35:54.648Z,0.00
2019-05-13T00:37:07.770Z,0.00
2019-05-13T00:37:55.613Z,0.00
2019-05-13T00:38:54.615Z,0.00
2019-05-13T00:39:54.675Z,0.00
2019-05-13T00:40:54.761Z,0.00
2019-05-13T00:41:54.754Z,0.00
2019-05-13T00:42:54.662Z,0.00
2019-05-13T00:43:54.557Z,0.00
2019-05-13T00:44:54.540Z,0.00
2019-05-13T00:45:54.587Z,0.00
2019-05-13T00:46:54.561Z,0.00
2019-05-13T00:47:54.594Z,0.00
2019-05-13T00:48:54.493Z,0.00
2019-05-13T00:49:54.483Z,0.00
2019-05-13T00:50:54.630Z,0.00
2019-05-13T00:51:54.563Z,0.00
2019-05-13T00:52:54.444Z,0.00
2019-05-13T00:53:54.490Z,0.00
2019-05-13T00:54:54.440Z,0.00
2019-05-13T00:55:54.442Z,0.00
2019-05-13T00:56:54.870Z,0.00
2019-05-13T00:57:54.393Z,0.00
2019-05-13T00:58:54.397Z,0.00
2019-05-13T00:59:54.394Z,0.00
2019-05-13T01:00:54.741Z,0.00
2019-05-13T01:01:54.430Z,0.00
2019-05-13T01:02:54.387Z,0.00
2019-05-13T01:03:54.329Z,0.00
2019-05-13T01:04:54.314Z,0.00
2019-05-13T01:05:54.303Z,0.00
2019-05-13T01:06:54.299Z,0.00
2019-05-13T01:07:54.322Z,0.00
2019-05-13T01:08:54.281Z,0.00
2019-05-13T01:09:54.261Z,0.00
2019-05-13T01:10:54.250Z,0.00
2019-05-13T01:11:54.237Z,0.00
2019-05-13T01:12:54.253Z,0.00
2019-05-13T01:13:54.214Z,0.00
2019-05-13T01:14:54.211Z,0.00
2019-05-13T01:15:54.548Z,0.00
2019-05-13T01:16:54.492Z,0.00
2019-05-13T01:17:54.203Z,0.00
2019-05-13T01:18:54.189Z,0.00
2019-05-13T01:19:54.150Z,0.00
2019-05-13T01:20:54.136Z,0.00
2019-05-13T01:21:54.195Z,0.00
2019-05-13T01:22:54.260Z,0.00
2019-05-13T01:23:54.411Z,0.00
2019-05-13T01:24:54.272Z,0.00
2019-05-13T01:25:54.578Z,0.00
2019-05-13T01:26:54.278Z,0.00
2019-05-13T01:27:54.091Z,0.00
2019-05-13T01:28:54.095Z,0.00
2019-05-13T01:29:54.032Z,0.00
2019-05-13T01:30:54.156Z,0.00
2019-05-13T01:31:54.034Z,0.00
2019-05-13T01:32:54.143Z,0.00
2019-05-13T01:33:54.015Z,0.00
2019-05-13T01:34:54.038Z,0.00
2019-05-13T01:35:54.043Z,0.00
2019-05-13T01:36:53.956Z,0.00
2019-05-13T01:37:53.984Z,0.00
2019-05-13T01:38:54.185Z,0.00
2019-05-13T01:39:54.175Z,0.00
2019-05-13T01:40:54.198Z,0.00
2019-05-13T01:41:54.209Z,0.00
2019-05-13T01:42:54.225Z,0.00
2019-05-13T01:43:54.457Z,0.00
2019-05-13T01:44:54.031Z,0.00
2019-05-13T01:45:53.858Z,0.00
2019-05-13T01:46:53.916Z,0.00
2019-05-13T01:47:54.500Z,0.00
2019-05-13T01:48:54.450Z,0.00
2019-05-13T01:49:54.236Z,0.00
2019-05-13T01:50:53.800Z,0.00
2019-05-13T01:51:54.273Z,0.00
2019-05-13T01:52:53.784Z,0.00
2019-05-13T01:53:53.801Z,0.00
2019-05-13T01:54:54.345Z,0.00
2019-05-13T01:55:53.748Z,0.00
2019-05-13T01:56:53.736Z,0.00
2019-05-13T01:57:53.729Z,0.00
2019-05-13T01:58:54.197Z,0.00
2019-05-13T01:59:53.916Z,0.00
2019-05-13T02:00:55.185Z,0.00
2019-05-13T02:01:54.166Z,0.00
2019-05-13T02:02:54.460Z,0.00
2019-05-13T02:03:54.552Z,0.00
2019-05-13T02:04:53.659Z,0.00
2019-05-13T02:05:54.447Z,0.00
2019-05-13T02:06:54.323Z,0.00
2019-05-13T02:08:00.299Z,0.00
2019-05-13T02:08:54.735Z,0.00
2019-05-13T02:09:53.631Z,0.00
2019-05-13T02:10:54.612Z,0.00
2019-05-13T02:11:53.918Z,0.00
2019-05-13T02:12:53.621Z,0.00
2019-05-13T02:13:54.141Z,0.00
2019-05-13T02:14:53.576Z,0.00
2019-05-13T02:15:54.974Z,0.00
2019-05-13T02:16:53.709Z,0.00
2019-05-13T02:17:53.770Z,0.00
2019-05-13T02:18:53.745Z,0.00
2019-05-13T02:19:54.108Z,0.00
2019-05-13T02:20:55.519Z,0.00
2019-05-13T02:21:54.299Z,0.00
2019-05-13T02:22:53.666Z,0.00
2019-05-13T02:23:53.747Z,0.00
2019-05-13T02:24:53.604Z,0.00
2019-05-13T02:25:54.269Z,0.00
2019-05-13T02:26:54.317Z,0.00
2019-05-13T02:27:54.206Z,0.00
2019-05-13T02:28:54.115Z,0.00
2019-05-13T02:29:54.002Z,0.00
2019-05-13T02:30:56.179Z,0.00
2019-05-13T02:31:56.272Z,0.00
2019-05-13T02:32:53.339Z,0.00
2019-05-13T02:33:53.317Z,0.00
2019-05-13T02:34:53.510Z,0.00
2019-05-13T02:35:53.928Z,0.00
2019-05-13T02:36:53.278Z,0.00
2019-05-13T02:37:53.272Z,0.00
2019-05-13T02:38:53.347Z,0.00
2019-05-13T02:39:53.370Z,0.00
2019-05-13T02:40:53.621Z,0.00
2019-05-13T02:41:53.223Z,0.00
2019-05-13T02:42:53.207Z,0.00
2019-05-13T02:43:53.197Z,0.00
2019-05-13T02:44:53.232Z,0.00
2019-05-13T02:45:53.913Z,0.00
2019-05-13T02:46:53.167Z,0.00
2019-05-13T02:47:53.184Z,0.00
2019-05-13T02:48:53.140Z,0.00
2019-05-13T02:49:53.550Z,0.00
2019-05-13T02:50:53.964Z,0.00
2019-05-13T02:51:54.626Z,0.00
2019-05-13T02:52:53.268Z,0.00
2019-05-13T02:53:53.094Z,0.00
2019-05-13T02:54:53.129Z,0.00
2019-05-13T02:55:53.113Z,0.00
2019-05-13T02:56:53.071Z,0.00
2019-05-13T02:57:53.042Z,0.00
2019-05-13T02:58:53.052Z,0.00
2019-05-13T02:59:53.034Z,0.00
2019-05-13T03:00:53.948Z,0.00
2019-05-13T03:01:53.610Z,0.00
2019-05-13T03:02:52.981Z,0.00
2019-05-13T03:03:53.096Z,0.00
2019-05-13T03:04:52.954Z,0.00
2019-05-13T03:05:53.333Z,0.00
2019-05-13T03:06:52.939Z,0.00
2019-05-13T03:07:53.266Z,0.00
2019-05-13T03:08:54.516Z,0.00
2019-05-13T03:09:53.036Z,0.00
2019-05-13T03:10:53.631Z,0.00
2019-05-13T03:11:53.862Z,0.00
2019-05-13T03:12:53.576Z,0.00
2019-05-13T03:13:53.304Z,0.00
2019-05-13T03:14:53.441Z,0.00
2019-05-13T03:15:52.849Z,0.00
2019-05-13T03:16:52.932Z,0.00
2019-05-13T03:17:52.918Z,0.00
2019-05-13T03:18:52.798Z,0.00
2019-05-13T03:19:53.406Z,0.00
2019-05-13T03:20:53.187Z,0.00
2019-05-13T03:21:52.996Z,0.00
2019-05-13T03:22:53.023Z,4.00
2019-05-13T03:23:52.805Z,4.00
2019-05-13T03:24:52.724Z,0.00
2019-05-13T03:25:53.731Z,0.00
2019-05-13T03:26:53.451Z,0.00
2019-05-13T03:27:53.996Z,4.00
2019-05-13T03:28:52.683Z,4.00
2019-05-13T03:29:53.500Z,0.00
2019-05-13T03:30:56.115Z,0.00
2019-05-13T03:31:55.860Z,4.00
2019-05-13T03:33:00.503Z,4.00
2019-05-13T03:33:56.153Z,4.00
2019-05-13T03:34:55.935Z,4.00
2019-05-13T03:35:55.880Z,4.00
2019-05-13T03:36:56.670Z,4.00
2019-05-13T03:37:53.612Z,4.00
2019-05-13T03:39:05.287Z,4.00
2019-05-13T03:39:53.557Z,8.00
2019-05-13T03:40:52.815Z,4.00
2019-05-13T03:41:53.015Z,4.00
2019-05-13T03:42:53.811Z,8.00
2019-05-13T03:43:53.413Z,4.00
2019-05-13T03:44:52.665Z,8.00
2019-05-13T03:45:52.785Z,8.00
2019-05-13T03:46:53.119Z,8.00
2019-05-13T03:47:52.780Z,12.00
2019-05-13T03:48:53.005Z,8.00
2019-05-13T03:49:53.264Z,12.00
2019-05-13T03:50:53.361Z,8.00
2019-05-13T03:51:53.478Z,12.00
2019-05-13T03:52:52.820Z,16.00
2019-05-13T03:53:53.422Z,12.00
2019-05-13T03:54:52.473Z,16.00
2019-05-13T03:55:54.111Z,16.00
2019-05-13T03:56:53.168Z,12.00
2019-05-13T03:57:53.175Z,16.00
2019-05-13T03:58:53.699Z,16.00
2019-05-13T03:59:52.742Z,16.00
2019-05-13T04:00:52.364Z,16.00
2019-05-13T04:01:52.736Z,20.00
2019-05-13T04:02:52.402Z,20.00
2019-05-13T04:03:52.910Z,20.00
2019-05-13T04:04:53.208Z,20.00
2019-05-13T04:05:52.876Z,24.00
2019-05-13T04:06:53.017Z,20.00
2019-05-13T04:07:52.808Z,24.00
2019-05-13T04:08:53.908Z,24.00
2019-05-13T04:09:52.573Z,28.00
2019-05-13T04:10:52.622Z,24.00
2019-05-13T04:11:52.729Z,28.00
2019-05-13T04:12:52.822Z,28.00
2019-05-13T04:13:52.728Z,28.00
2019-05-13T04:14:52.981Z,28.00
2019-05-13T04:15:53.164Z,28.00
2019-05-13T04:16:53.137Z,28.00
2019-05-13T04:17:53.448Z,32.00
2019-05-13T04:18:53.708Z,32.00
2019-05-13T04:19:52.965Z,32.00
2019-05-13T04:20:52.991Z,36.00
2019-05-13T04:21:52.960Z,32.00
2019-05-13T04:22:53.239Z,36.00
2019-05-13T04:23:53.107Z,32.00
2019-05-13T04:24:52.995Z,36.00
2019-05-13T04:25:53.709Z,36.00
2019-05-13T04:26:53.367Z,40.00
2019-05-13T04:27:52.482Z,36.00
2019-05-13T04:28:52.743Z,36.00
2019-05-13T04:29:52.875Z,40.00
2019-05-13T04:30:52.727Z,40.00
2019-05-13T04:31:53.188Z,40.00
2019-05-13T04:32:53.408Z,44.00
2019-05-13T04:33:53.144Z,44.00
2019-05-13T04:34:52.879Z,44.00
2019-05-13T04:35:52.976Z,44.00
2019-05-13T04:36:52.135Z,44.00
2019-05-13T04:37:52.831Z,44.00
2019-05-13T04:38:52.850Z,44.00
2019-05-13T04:39:56.134Z,48.00
2019-05-13T04:40:52.831Z,48.00
2019-05-13T04:41:52.880Z,48.00
2019-05-13T04:42:53.429Z,48.00
2019-05-13T04:43:53.927Z,52.00
2019-05-13T04:44:53.249Z,48.00
2019-05-13T04:45:52.527Z,52.00
2019-05-13T04:46:52.370Z,56.00
2019-05-13T04:47:52.919Z,56.00
2019-05-13T04:48:53.064Z,56.00
2019-05-13T04:49:53.359Z,56.00
2019-05-13T04:50:53.296Z,56.00
2019-05-13T04:51:52.433Z,56.00
2019-05-13T04:52:52.602Z,60.00
2019-05-13T04:53:56.006Z,60.00
2019-05-13T04:54:52.962Z,60.00
2019-05-13T04:55:52.618Z,60.00
2019-05-13T04:56:52.646Z,60.00
2019-05-13T04:57:53.362Z,60.00
2019-05-13T04:58:52.716Z,60.00
2019-05-13T04:59:54.876Z,64.00
2019-05-13T05:01:02.711Z,56.00
2019-05-13T05:01:58.921Z,60.00
2019-05-13T05:02:55.329Z,60.00
2019-05-13T05:03:53.250Z,60.00
2019-05-13T05:04:52.424Z,64.00
2019-05-13T05:05:52.654Z,60.00
2019-05-13T05:06:52.672Z,60.00
2019-05-13T05:07:52.542Z,64.00
2019-05-13T05:08:52.550Z,64.00
2019-05-13T05:10:53.982Z,68.00
2019-05-13T05:11:52.897Z,68.00
2019-05-13T05:12:52.047Z,68.00
2019-05-13T05:13:55.918Z,68.00
2019-05-13T05:14:52.522Z,68.00
2019-05-13T05:15:52.264Z,72.00
2019-05-13T05:16:52.312Z,68.00
2019-05-13T05:17:52.222Z,72.00
2019-05-13T05:18:52.648Z,72.00
2019-05-13T05:19:52.522Z,72.00
2019-05-13T05:20:51.901Z,76.00
2019-05-13T05:21:54.638Z,80.00
2019-05-13T05:22:51.408Z,80.00
2019-05-13T05:23:51.598Z,80.00
2019-05-13T05:24:52.064Z,84.00
2019-05-13T05:25:52.148Z,88.00
2019-05-13T05:26:52.214Z,92.00
2019-05-13T05:27:51.569Z,92.00
2019-05-13T05:28:51.953Z,96.00
2019-05-13T05:29:51.707Z,96.00
2019-05-13T05:30:51.972Z,100.00
2019-05-13T05:31:51.974Z,104.00
2019-05-13T05:32:51.956Z,108.00
2019-05-13T05:33:51.703Z,108.00
2019-05-13T05:34:51.884Z,104.00
2019-05-13T05:35:52.042Z,112.00
2019-05-13T05:36:52.078Z,112.00
2019-05-13T05:37:52.234Z,116.00
2019-05-13T05:38:51.505Z,116.00
2019-05-13T05:39:51.299Z,120.00
2019-05-13T05:40:51.238Z,120.00
2019-05-13T05:41:51.472Z,124.00
2019-05-13T05:42:51.786Z,128.00
2019-05-13T05:43:52.166Z,132.00
2019-05-13T05:44:51.817Z,132.00
2019-05-13T05:45:51.330Z,128.00
2019-05-13T05:46:51.579Z,132.00
2019-05-13T05:47:51.211Z,132.00
2019-05-13T05:48:52.916Z,140.00
2019-05-13T05:49:51.664Z,140.00
2019-05-13T05:50:51.634Z,140.00
2019-05-13T05:51:51.571Z,144.00
2019-05-13T05:52:51.435Z,148.00
2019-05-13T05:53:51.698Z,148.00
2019-05-13T05:54:51.682Z,152.00
2019-05-13T05:55:51.790Z,152.00
2019-05-13T05:56:51.924Z,156.00
2019-05-13T05:57:52.214Z,160.00
2019-05-13T05:58:52.382Z,160.00
2019-05-13T05:59:51.703Z,164.00
2019-05-13T06:00:52.058Z,164.00
2019-05-13T06:01:52.553Z,164.00
2019-05-13T06:02:53.245Z,164.00
2019-05-13T06:03:52.006Z,164.00
2019-05-13T06:04:51.965Z,164.00
2019-05-13T06:05:51.287Z,172.00
2019-05-13T06:06:52.186Z,168.00
2019-05-13T06:07:51.419Z,172.00
2019-05-13T06:08:51.680Z,172.00
2019-05-13T06:09:51.582Z,172.00
2019-05-13T06:10:53.699Z,172.00
2019-05-13T06:11:52.213Z,176.00
2019-05-13T06:12:52.267Z,176.00
2019-05-13T06:13:54.395Z,180.00
2019-05-13T06:14:52.499Z,176.00
2019-05-13T06:15:51.494Z,176.00
2019-05-13T06:16:51.868Z,180.00
2019-05-13T06:17:51.798Z,176.00
2019-05-13T06:18:52.291Z,176.00
2019-05-13T06:19:51.287Z,176.00
2019-05-13T06:20:51.316Z,180.00
2019-05-13T06:21:51.400Z,188.00
2019-05-13T06:22:51.551Z,188.00
2019-05-13T06:23:51.875Z,188.00
2019-05-13T06:24:52.185Z,184.00
2019-05-13T06:25:52.678Z,184.00
2019-05-13T06:26:52.013Z,188.00
2019-05-13T06:27:51.234Z,184.00
2019-05-13T06:28:52.077Z,184.00
2019-05-13T06:29:52.741Z,184.00
2019-05-13T06:30:52.028Z,192.00
2019-05-13T06:31:51.953Z,192.00
2019-05-13T06:32:52.487Z,188.00
2019-05-13T06:33:51.430Z,196.00
2019-05-13T06:34:52.481Z,196.00
2019-05-13T06:35:52.122Z,196.00
2019-05-13T06:36:52.341Z,200.00
2019-05-13T06:37:52.058Z,196.00
2019-05-13T06:38:51.302Z,192.00
2019-05-13T06:39:51.273Z,168.00
2019-05-13T06:41:02.504Z,196.00
2019-05-13T06:41:51.857Z,208.00
2019-05-13T06:42:52.128Z,208.00
2019-05-13T06:43:52.385Z,204.00
2019-05-13T06:44:51.424Z,196.00
2019-05-13T06:45:51.410Z,196.00
2019-05-13T06:46:51.638Z,192.00
2019-05-13T06:47:52.157Z,192.00
2019-05-13T06:48:52.071Z,196.00
2019-05-13T06:49:51.652Z,200.00
2019-05-13T06:50:52.141Z,208.00
2019-05-13T06:51:52.729Z,212.00
2019-05-13T06:52:51.345Z,208.00
2019-05-13T06:53:51.749Z,208.00
2019-05-13T06:54:52.056Z,212.00
2019-05-13T06:55:52.317Z,208.00
2019-05-13T06:56:51.702Z,200.00
2019-05-13T06:57:51.776Z,204.00
2019-05-13T06:58:52.003Z,208.00
2019-05-13T06:59:52.401Z,208.00
2019-05-13T07:00:51.645Z,212.00
2019-05-13T07:01:51.414Z,212.00
2019-05-13T07:02:51.696Z,220.00
2019-05-13T07:03:51.738Z,212.00
2019-05-13T07:04:51.669Z,220.00
2019-05-13T07:05:52.469Z,224.00
2019-05-13T07:06:56.132Z,232.00
2019-05-13T07:07:51.427Z,228.00
2019-05-13T07:08:52.133Z,232.00
2019-05-13T07:09:51.774Z,228.00
2019-05-13T07:10:51.522Z,232.00
2019-05-13T07:11:51.825Z,232.00
2019-05-13T07:12:51.870Z,228.00
2019-05-13T07:13:51.625Z,220.00
2019-05-13T07:14:51.826Z,240.00
2019-05-13T07:15:52.164Z,232.00
2019-05-13T07:16:52.362Z,232.00
2019-05-13T07:17:51.979Z,236.00
2019-05-13T07:18:52.294Z,228.00
2019-05-13T07:19:51.668Z,220.00
2019-05-13T07:20:52.792Z,212.00
2019-05-13T07:21:52.079Z,204.00
2019-05-13T07:22:52.951Z,204.00
2019-05-13T07:23:54.173Z,208.00
2019-05-13T07:24:51.949Z,204.00
2019-05-13T07:25:52.449Z,208.00
2019-05-13T07:26:52.177Z,212.00
2019-05-13T07:27:51.512Z,212.00
2019-05-13T07:28:52.466Z,204.00
2019-05-13T07:29:51.467Z,216.00
2019-05-13T07:30:51.591Z,204.00
2019-05-13T07:31:52.153Z,196.00
2019-05-13T07:32:52.272Z,208.00
2019-05-13T07:33:51.703Z,204.00
2019-05-13T07:34:53.269Z,200.00
2019-05-13T07:35:57.231Z,208.00
2019-05-13T07:36:51.350Z,216.00
2019-05-13T07:37:51.755Z,224.00
2019-05-13T07:38:52.103Z,220.00
2019-05-13T07:39:49.858Z,212.00
2019-05-13T07:40:52.126Z,216.00
2019-05-13T07:41:51.925Z,212.00
2019-05-13T07:42:52.140Z,208.00
2019-05-13T07:43:51.703Z,208.00
2019-05-13T07:44:51.998Z,212.00
2019-05-13T07:45:51.382Z,212.00
2019-05-13T07:46:52.066Z,208.00
2019-05-13T07:47:51.905Z,200.00
2019-05-13T07:48:52.180Z,172.00
2019-05-13T07:49:51.571Z,168.00
2019-05-13T07:50:56.298Z,168.00
2019-05-13T07:51:52.035Z,184.00
2019-05-13T07:52:51.458Z,180.00
2019-05-13T07:53:51.802Z,188.00
2019-05-13T07:54:51.900Z,180.00
2019-05-13T07:55:52.324Z,192.00
2019-05-13T07:56:51.681Z,176.00
2019-05-13T07:57:51.528Z,188.00
2019-05-13T07:58:52.182Z,188.00
2019-05-13T07:59:52.233Z,180.00
2019-05-13T08:00:51.854Z,176.00
2019-05-13T08:01:51.993Z,184.00
2019-05-13T08:02:52.180Z,180.00
2019-05-13T08:03:51.561Z,188.00
2019-05-13T08:04:52.868Z,184.00
2019-05-13T08:05:51.298Z,180.00
2019-05-13T08:06:52.196Z,176.00
2019-05-13T08:07:51.487Z,176.00
2019-05-13T08:08:52.100Z,176.00
2019-05-13T08:09:51.819Z,172.00
2019-05-13T08:10:51.337Z,176.00
2019-05-13T08:12:04.327Z,160.00
2019-05-13T08:12:51.653Z,176.00
2019-05-13T08:13:51.730Z,176.00
2019-05-13T08:14:51.922Z,176.00
2019-05-13T08:15:49.457Z,180.00
2019-05-13T08:16:51.656Z,180.00
2019-05-13T08:17:52.251Z,180.00
2019-05-13T08:18:49.428Z,180.00
2019-05-13T08:19:51.860Z,132.00
2019-05-13T08:20:49.399Z,188.00
2019-05-13T08:21:51.384Z,176.00
2019-05-13T08:22:51.869Z,180.00
2019-05-13T08:23:49.382Z,188.00
2019-05-13T08:24:52.010Z,188.00
2019-05-13T08:25:51.420Z,196.00
2019-05-13T08:26:50.723Z,192.00
2019-05-13T08:27:51.485Z,188.00
2019-05-13T08:29:00.320Z,192.00
2019-05-13T08:29:52.198Z,184.00
2019-05-13T08:30:51.635Z,184.00
2019-05-13T08:31:51.665Z,184.00
2019-05-13T08:32:49.268Z,180.00
2019-05-13T08:33:51.783Z,180.00
2019-05-13T08:34:52.634Z,180.00
2019-05-13T08:35:54.014Z,180.00
2019-05-13T08:36:51.378Z,180.00
2019-05-13T08:37:49.208Z,184.00
2019-05-13T08:38:51.854Z,180.00
2019-05-13T08:39:49.210Z,184.00
2019-05-13T08:40:51.164Z,184.00
2019-05-13T08:41:51.409Z,176.00
2019-05-13T08:42:49.153Z,180.00
2019-05-13T08:43:49.143Z,180.00
2019-05-13T08:44:52.029Z,188.00
2019-05-13T08:45:51.649Z,188.00
2019-05-13T08:46:49.123Z,184.00
2019-05-13T08:47:51.128Z,192.00
2019-05-13T08:48:51.612Z,160.00
2019-05-13T08:49:49.103Z,192.00
2019-05-13T08:50:49.086Z,192.00
2019-05-13T08:51:49.050Z,196.00
2019-05-13T08:52:51.114Z,200.00
2019-05-13T08:53:51.521Z,200.00
2019-05-13T08:54:49.045Z,208.00
2019-05-13T08:55:51.570Z,208.00
2019-05-13T08:56:48.994Z,208.00
2019-05-13T08:57:51.465Z,208.00
2019-05-13T08:58:48.964Z,208.00
2019-05-13T08:59:51.295Z,208.00
2019-05-13T09:00:48.994Z,212.00
2019-05-13T09:01:48.934Z,212.00
2019-05-13T09:02:48.929Z,212.00
2019-05-13T09:03:48.910Z,212.00
2019-05-13T09:04:51.291Z,204.00
2019-05-13T09:05:48.912Z,200.00
2019-05-13T09:06:48.887Z,208.00
2019-05-13T09:07:48.868Z,224.00
2019-05-13T09:08:48.858Z,228.00
2019-05-13T09:09:51.124Z,232.00
2019-05-13T09:10:48.870Z,220.00
2019-05-13T09:11:51.426Z,220.00
2019-05-13T09:12:48.811Z,224.00
2019-05-13T09:13:48.856Z,228.00
2019-05-13T09:14:48.795Z,228.00
2019-05-13T09:15:51.464Z,224.00
2019-05-13T09:16:48.805Z,224.00
2019-05-13T09:17:48.890Z,228.00
2019-05-13T09:18:51.792Z,228.00
2019-05-13T09:19:48.750Z,228.00
2019-05-13T09:20:48.722Z,228.00
2019-05-13T09:21:48.757Z,228.00
2019-05-13T09:22:48.704Z,228.00
2019-05-13T09:23:48.689Z,232.00
2019-05-13T09:24:48.683Z,236.00
2019-05-13T09:25:48.769Z,240.00
2019-05-13T09:26:48.690Z,236.00
2019-05-13T09:27:51.219Z,240.00
2019-05-13T09:28:48.634Z,240.00
2019-05-13T09:29:48.626Z,244.00
2019-05-13T09:30:48.613Z,244.00
2019-05-13T09:31:48.674Z,240.00
2019-05-13T09:32:48.587Z,244.00
2019-05-13T09:33:48.576Z,248.00
2019-05-13T09:34:48.586Z,244.00
2019-05-13T09:35:50.950Z,244.00
2019-05-13T09:36:48.571Z,244.00
2019-05-13T09:37:48.533Z,248.00
2019-05-13T09:38:48.515Z,248.00
2019-05-13T09:39:48.504Z,248.00
2019-05-13T09:40:48.494Z,248.00
2019-05-13T09:41:48.508Z,248.00
2019-05-13T09:43:51.378Z,252.00
2019-05-13T09:44:48.451Z,244.00
2019-05-13T09:45:48.434Z,248.00
2019-05-13T09:46:48.461Z,252.00
2019-05-13T09:47:48.415Z,256.00
2019-05-13T09:48:48.405Z,264.00
2019-05-13T09:49:48.389Z,264.00
2019-05-13T09:50:48.378Z,260.00
2019-05-13T09:51:48.395Z,260.00
2019-05-13T09:52:48.359Z,264.00
2019-05-13T09:53:48.350Z,260.00
2019-05-13T09:54:48.345Z,260.00
2019-05-13T09:55:48.325Z,260.00
2019-05-13T09:56:48.349Z,260.00
2019-05-13T09:57:48.298Z,264.00
2019-05-13T09:58:48.311Z,264.00
2019-05-13T09:59:48.286Z,268.00
2019-05-13T10:00:48.273Z,268.00
2019-05-13T10:01:48.303Z,268.00
2019-05-13T10:02:48.243Z,268.00
2019-05-13T10:03:57.052Z,272.00
2019-05-13T10:04:51.573Z,268.00
2019-05-13T10:05:48.213Z,272.00
2019-05-13T10:06:48.196Z,276.00
2019-05-13T10:07:48.224Z,280.00
2019-05-13T10:08:48.264Z,280.00
2019-05-13T10:09:48.621Z,280.00
2019-05-13T10:10:48.173Z,280.00
2019-05-13T10:11:48.142Z,284.00
2019-05-13T10:13:07.319Z,280.00
2019-05-13T10:13:51.430Z,280.00
2019-05-13T10:14:48.131Z,288.00
2019-05-13T10:15:48.789Z,288.00
2019-05-13T10:16:48.082Z,288.00
2019-05-13T10:17:48.103Z,292.00
2019-05-13T10:18:48.063Z,292.00
2019-05-13T10:19:48.061Z,292.00
2019-05-13T10:20:48.237Z,296.00
2019-05-13T10:21:48.032Z,288.00
2019-05-13T10:22:48.122Z,292.00
2019-05-13T10:23:48.014Z,296.00
2019-05-13T10:24:48.098Z,300.00
2019-05-13T10:25:47.986Z,304.00
2019-05-13T10:26:47.984Z,304.00
2019-05-13T10:27:47.995Z,300.00
2019-05-13T10:28:47.960Z,304.00
2019-05-13T10:29:47.949Z,308.00
2019-05-13T10:30:47.929Z,308.00
2019-05-13T10:31:47.913Z,308.00
2019-05-13T10:32:48.018Z,312.00
2019-05-13T10:33:47.940Z,312.00
2019-05-13T10:34:47.878Z,316.00
2019-05-13T10:35:47.869Z,316.00
2019-05-13T10:36:47.861Z,316.00
2019-05-13T10:37:47.846Z,316.00
2019-05-13T10:38:47.881Z,320.00
2019-05-13T10:39:47.820Z,320.00
2019-05-13T10:40:47.847Z,320.00
2019-05-13T10:41:47.803Z,324.00
2019-05-13T10:42:47.788Z,324.00
2019-05-13T10:43:47.803Z,320.00
2019-05-13T10:44:47.769Z,320.00
2019-05-13T10:45:47.761Z,328.00
2019-05-13T10:46:47.755Z,332.00
2019-05-13T10:47:47.752Z,328.00
2019-05-13T10:48:47.742Z,332.00
2019-05-13T10:49:47.708Z,332.00
2019-05-13T10:50:47.711Z,332.00
2019-05-13T10:51:47.700Z,328.00
2019-05-13T10:52:47.704Z,328.00
2019-05-13T10:53:47.827Z,332.00
2019-05-13T10:54:49.251Z,332.00
2019-05-13T10:55:47.833Z,332.00
2019-05-13T10:56:48.216Z,336.00
2019-05-13T10:57:47.956Z,336.00
2019-05-13T10:58:47.849Z,336.00
2019-05-13T10:59:47.987Z,336.00
2019-05-13T11:00:47.875Z,336.00
2019-05-13T11:01:48.152Z,348.00
2019-05-13T11:02:48.094Z,340.00
2019-05-13T11:03:48.309Z,340.00
2019-05-13T11:04:47.550Z,344.00
2019-05-13T11:05:47.529Z,340.00
2019-05-13T11:06:47.526Z,344.00
2019-05-13T11:07:47.535Z,344.00
2019-05-13T11:08:47.562Z,344.00
2019-05-13T11:09:47.504Z,344.00
2019-05-13T11:10:47.566Z,340.00
2019-05-13T11:11:47.472Z,348.00
2019-05-13T11:12:47.459Z,348.00
2019-05-13T11:14:53.322Z,348.00
2019-05-13T11:15:48.590Z,348.00
2019-05-13T11:16:47.409Z,352.00
2019-05-13T11:17:47.404Z,352.00
2019-05-13T11:18:47.435Z,352.00
2019-05-13T11:19:47.611Z,352.00
2019-05-13T11:20:47.392Z,352.00
2019-05-13T11:21:50.606Z,352.00
2019-05-13T11:22:47.347Z,352.00
2019-05-13T11:23:47.330Z,352.00
2019-05-13T11:24:47.353Z,356.00
2019-05-13T11:25:47.309Z,356.00
2019-05-13T11:26:47.299Z,356.00
2019-05-13T11:27:47.283Z,356.00
2019-05-13T11:28:47.280Z,360.00
2019-05-13T11:29:47.303Z,360.00
2019-05-13T11:30:47.258Z,360.00
2019-05-13T11:31:47.274Z,360.00
2019-05-13T11:32:47.237Z,360.00
2019-05-13T11:33:47.218Z,360.00
2019-05-13T11:34:47.210Z,364.00
2019-05-13T11:35:47.323Z,364.00
2019-05-13T11:36:47.189Z,364.00
2019-05-13T11:37:47.174Z,360.00
2019-05-13T11:38:47.163Z,364.00
2019-05-13T11:39:47.149Z,360.00
2019-05-13T11:40:47.161Z,368.00
2019-05-13T11:41:47.127Z,364.00
2019-05-13T11:42:47.117Z,368.00
2019-05-13T11:44:08.098Z,368.00
2019-05-13T11:44:48.127Z,364.00
2019-05-13T11:45:47.121Z,360.00
2019-05-13T11:46:47.075Z,364.00
2019-05-13T11:47:47.071Z,364.00
2019-05-13T11:48:47.055Z,368.00
2019-05-13T11:49:47.063Z,364.00
2019-05-13T11:50:50.547Z,372.00
2019-05-13T11:51:48.016Z,376.00
2019-05-13T11:52:47.009Z,368.00
2019-05-13T11:53:47.026Z,364.00
2019-05-13T11:54:47.010Z,368.00
2019-05-13T11:55:46.998Z,372.00
2019-05-13T11:56:50.524Z,372.00
2019-05-13T11:57:47.952Z,372.00
2019-05-13T11:58:46.948Z,372.00
2019-05-13T11:59:46.950Z,372.00
2019-05-13T12:00:46.970Z,372.00
2019-05-13T12:01:46.909Z,372.00
2019-05-13T12:02:51.978Z,376.00
2019-05-13T12:03:47.893Z,372.00
2019-05-13T12:04:46.869Z,372.00
2019-05-13T12:05:46.885Z,372.00
2019-05-13T12:06:49.396Z,372.00
2019-05-13T12:07:47.837Z,368.00
2019-05-13T12:08:50.990Z,372.00
2019-05-13T12:09:47.816Z,372.00
2019-05-13T12:10:46.825Z,372.00
2019-05-13T12:11:46.817Z,372.00
2019-05-13T12:12:46.790Z,380.00
2019-05-13T12:13:46.782Z,364.00
2019-05-13T12:15:19.161Z,372.00
2019-05-13T12:15:49.945Z,376.00
2019-05-13T12:16:46.758Z,376.00
2019-05-13T12:17:46.728Z,376.00
2019-05-13T12:18:46.716Z,376.00
2019-05-13T12:19:46.698Z,376.00
2019-05-13T12:20:46.728Z,388.00
2019-05-13T12:21:47.083Z,376.00
2019-05-13T12:22:46.683Z,376.00
2019-05-13T12:23:46.656Z,372.00
2019-05-13T12:24:46.648Z,372.00
2019-05-13T12:25:46.699Z,372.00
2019-05-13T12:26:46.690Z,376.00
2019-05-13T12:27:46.626Z,376.00
2019-05-13T12:28:46.601Z,376.00
2019-05-13T12:29:46.594Z,372.00
2019-05-13T12:30:46.578Z,372.00
2019-05-13T12:31:46.612Z,368.00
2019-05-13T12:32:46.558Z,372.00
2019-05-13T12:33:46.543Z,368.00
2019-05-13T12:34:46.534Z,372.00
2019-05-13T12:35:46.524Z,372.00
2019-05-13T12:36:46.536Z,372.00
2019-05-13T12:37:46.501Z,372.00
2019-05-13T12:38:46.497Z,376.00
2019-05-13T12:39:46.478Z,380.00
2019-05-13T12:40:46.483Z,368.00
2019-05-13T12:41:46.494Z,372.00
2019-05-13T12:42:47.416Z,376.00
2019-05-13T12:43:46.437Z,376.00
2019-05-13T12:45:00.260Z,372.00
2019-05-13T12:45:47.471Z,364.00
2019-05-13T12:46:50.563Z,364.00
2019-05-13T12:47:47.385Z,372.00
2019-05-13T12:48:46.379Z,372.00